Terminal Aerodrome Forecast
Issued by NWS

Home | Current Version | Previous Version | Text Only | Print | Product List | Glossary On
Versions: 1 2 3 4 5 6 7 8 9 10 11 12
000
FTUS42 TJSJ 221700
TAFJMZ
TAF
TJMZ 221730Z 2218/2318 11010KT P6SM VCSH SCT025 BKN040
      TEMPO 2218/2220 SHRA BKN030 BKN050
     FM222000 09012KT P6SM VCTS SCT020CB BKN040 OVC060
      TEMPO 2221/2223 VRB10G22KT 4SM TSRA BKN030CB BKN040 OVC060
     FM222300 12010KT P6SM VCSH BKN025=

USA.gov is the U.S. government's official web portal to all federal, state and local government web resources and services.